PWSweather.com
Personal Weather Stations
Station Observations
ABQWX
Albuquerque, NM 87110

Albuquerque, NM 87110

Lat: 35.1305, Lon: -106.58571

Elevation: 5210

Station Type: LaCrosse

http://www.albuquerqueweather.info/

Latest ConditionsUpdated 7:00:03 PM MDT Saturday, Oct 25, 2014
Currently Today's Max Today's Min Today's Average
Temperature 72.3°F22.4°C 80.6°F27.0°C 44.2°F6.8°C 61.4°F16.3°C
Dew Point 37.4°F3.0°C 43.4°F6.3°C 29.5°F-1.4°C 35.9°F2.2°C
Winds Calm Calm 4.4 mph SW7.1 kmh SW - 1.3 mph 2.1 kmh
Wind Gusts -- 6.0 mph9.7 kmh - -
Humidity 28% 60% 23% 41%
Pressure 30.10 in1019.3 mb 30.26 in1024.7 mb 30.10 in1019.3 mb -
Hour Temp Dew Point Humidity Winds Wind Gusts Pressure Precip Precip Rate Daily Precip Total
07:00 PM 72.3°F22.4°C 37.4°F3.0°C 28% Calm Calm -- 30.10 in1019.3 mb 0.00 in0.0 mm 0.00 in/hr0.0 mm/hr 0.00 in0.0 mm
06:00 PM 77.0°F25.0°C 36.3°F2.4°C 23% 0.9 mph S1.4 kmh S 1.8 mph2.9 kmh 30.10 in1019.3 mb 0.00 in0.0 mm 0.00 in/hr0.0 mm/hr 0.00 in0.0 mm
05:00 PM 79.7°F26.5°C 38.6°F3.7°C 23% 3.0 mph SSE4.8 kmh SSE 4.9 mph7.9 kmh 30.12 in1020.0 mb 0.00 in0.0 mm 0.00 in/hr0.0 mm/hr 0.00 in0.0 mm
04:00 PM 80.6°F27.0°C 39.4°F4.1°C 23% 2.2 mph SSW3.5 kmh SSW 4.3 mph6.9 kmh 30.13 in1020.3 mb 0.00 in0.0 mm 0.00 in/hr0.0 mm/hr 0.00 in0.0 mm
03:00 PM 80.6°F27.0°C 41.5°F5.3°C 25% 4.4 mph SW7.1 kmh SW 6.0 mph9.7 kmh 30.14 in1020.7 mb 0.00 in0.0 mm 0.00 in/hr0.0 mm/hr 0.00 in0.0 mm
02:00 PM 78.3°F25.7°C 43.4°F6.3°C 29% 3.7 mph SW6.0 kmh SW 5.4 mph8.7 kmh 30.17 in1021.7 mb 0.00 in0.0 mm 0.00 in/hr0.0 mm/hr 0.00 in0.0 mm
01:00 PM 75.2°F24.0°C 43.3°F6.3°C 32% 2.4 mph SSE3.9 kmh SSE 4.7 mph7.6 kmh 30.20 in1022.7 mb 0.00 in0.0 mm 0.00 in/hr0.0 mm/hr 0.00 in0.0 mm
12:00 PM 70.5°F21.4°C 43.0°F6.1°C 37% 1.7 mph S2.7 kmh S 3.4 mph5.5 kmh 30.23 in1023.7 mb 0.00 in0.0 mm 0.00 in/hr0.0 mm/hr 0.00 in0.0 mm
11:00 AM 63.0°F17.2°C 35.6°F2.0°C 36% 1.5 mph W2.4 kmh W 2.5 mph4.0 kmh 30.25 in1024.4 mb 0.00 in0.0 mm 0.00 in/hr0.0 mm/hr 0.00 in0.0 mm
10:00 AM 56.7°F13.7°C 31.3°F-0.4°C 38% 1.9 mph NW3.1 kmh NW 3.4 mph5.5 kmh 30.26 in1024.7 mb 0.00 in0.0 mm 0.00 in/hr0.0 mm/hr 0.00 in0.0 mm
09:00 AM 52.2°F11.2°C 29.7°F-1.3°C 42% 2.1 mph NW3.4 kmh NW 4.0 mph6.4 kmh 30.25 in1024.4 mb 0.00 in0.0 mm 0.00 in/hr0.0 mm/hr 0.00 in0.0 mm
08:00 AM 46.0°F7.8°C 29.8°F-1.2°C 53% 1.1 mph NW1.8 kmh NW 1.8 mph2.9 kmh 30.24 in1024.0 mb 0.00 in0.0 mm 0.00 in/hr0.0 mm/hr 0.00 in0.0 mm
07:00 AM 44.2°F6.8°C 29.5°F-1.4°C 56% 0.7 mph WSW1.1 kmh WSW 1.1 mph1.8 kmh 30.22 in1023.4 mb 0.00 in0.0 mm 0.00 in/hr0.0 mm/hr 0.00 in0.0 mm
06:00 AM 45.5°F7.5°C 31.6°F-0.2°C 58% Calm Calm -- 30.21 in1023.0 mb 0.00 in0.0 mm 0.00 in/hr0.0 mm/hr 0.00 in0.0 mm
05:00 AM 47.1°F8.4°C 33.9°F1.1°C 60% Calm Calm -- 30.21 in1023.0 mb 0.00 in0.0 mm 0.00 in/hr0.0 mm/hr 0.00 in0.0 mm
04:00 AM 48.6°F9.2°C 34.4°F1.3°C 58% Calm Calm -- 30.21 in1023.0 mb 0.00 in0.0 mm 0.00 in/hr0.0 mm/hr 0.00 in0.0 mm
03:00 AM 50.0°F10.0°C 34.5°F1.4°C 55% Calm Calm -- 30.21 in1023.0 mb 0.00 in0.0 mm 0.00 in/hr0.0 mm/hr 0.00 in0.0 mm
02:00 AM 51.8°F11.0°C 34.7°F1.5°C 52% 0.3 mph E0.5 kmh E 1.1 mph1.8 kmh 30.21 in1023.0 mb 0.00 in0.0 mm 0.00 in/hr0.0 mm/hr 0.00 in0.0 mm
01:00 AM 53.4°F11.9°C 34.2°F1.2°C 48% Calm Calm -- 30.21 in1023.0 mb 0.00 in0.0 mm 0.00 in/hr0.0 mm/hr 0.00 in0.0 mm
12:00 AM 55.8°F13.2°C 35.3°F1.8°C 46% Calm Calm -- 30.21 in1023.0 mb 0.00 in0.0 mm 0.00 in/hr0.0 mm/hr 0.00 in0.0 mm